Time;durP1;ratioP1;P1;durP2;ratioP2;P2;SDS_P1;SDS_P2;PMS_P1;PMS_P2;Temp;Humidity;BMP_temperature;BMP_pressure;BME280_temperature;BME280_humidity;BME280_pressure;Samples;Min_cycle;Max_cycle;Signal;HPM_P1;HPM_P2
2020/12/02 00:01:52;;;;;;;20.65;12.70;;;4.20;99.90;;;;;;5071892;28;20244;-74
2020/12/02 00:04:21;;;;;;;25.02;13.15;;;4.40;99.90;;;;;;5072375;28;20596;-74
2020/12/02 00:30:22;;;;;;;16.50;7.70;;;4.20;99.90;;;;;;5074754;28;20188;-74
2020/12/02 00:32:49;;;;;;;18.10;10.88;;;4.30;99.90;;;;;;5072338;28;20222;-73
2020/12/02 00:35:19;;;;;;;18.45;11.23;;;4.20;99.90;;;;;;5071120;28;20293;-73
2020/12/02 00:37:46;;;;;;;21.35;11.43;;;4.00;99.90;;;;;;5077343;28;20849;-73
2020/12/02 00:40:16;;;;;;;22.40;12.77;;;4.20;99.90;;;;;;5071047;28;20286;-73
2020/12/02 00:42:42;;;;;;;19.10;11.40;;;4.30;99.90;;;;;;5081976;28;20227;-73
2020/12/02 01:02:07;;;;;;;20.02;10.85;;;4.00;99.90;;;;;;5070819;28;20208;-73
2020/12/02 01:04:37;;;;;;;24.52;12.80;;;4.10;99.90;;;;;;5070832;28;20273;-73
2020/12/02 01:07:05;;;;;;;23.27;12.57;;;4.00;99.90;;;;;;5050586;28;20202;-73
2020/12/02 01:09:31;;;;;;;24.25;13.57;;;4.10;99.90;;;;;;5075078;28;20247;-74
2020/12/02 01:12:02;;;;;;;20.40;12.63;;;4.00;99.90;;;;;;5077334;28;20234;-74
2020/12/02 01:14:29;;;;;;;21.83;12.55;;;4.00;99.90;;;;;;5070696;28;20209;-74
2020/12/02 01:16:57;;;;;;;22.50;13.57;;;4.20;99.90;;;;;;5070521;28;20226;-74
2020/12/02 01:19:27;;;;;;;24.95;12.82;;;4.30;99.90;;;;;;5070930;28;20711;-73
2020/12/02 01:21:58;;;;;;;25.00;14.70;;;4.30;99.90;;;;;;5070182;28;20232;-73
2020/12/02 01:24:29;;;;;;;21.58;12.10;;;4.00;99.90;;;;;;5069979;28;20205;-75
2020/12/02 01:27:00;;;;;;;22.90;11.60;;;4.10;99.90;;;;;;5070114;28;20251;-73
2020/12/02 01:29:27;;;;;;;21.52;9.98;;;4.10;99.90;;;;;;5069884;28;20297;-74
2020/12/02 01:31:56;;;;;;;16.02;9.25;;;4.20;99.90;;;;;;5079820;28;20221;-73
2020/12/02 01:34:25;;;;;;;18.90;12.73;;;3.90;99.90;;;;;;5089230;28;20656;-73
2020/12/02 01:37:10;;;;;;;23.70;13.23;;;4.00;99.90;;;;;;5076005;28;20221;-73
2020/12/02 01:39:42;;;;;;;20.35;12.13;;;3.70;99.90;;;;;;5069721;28;20202;-73
2020/12/02 01:42:11;;;;;;;20.70;10.95;;;4.00;99.90;;;;;;5070151;28;20226;-74
2020/12/02 01:44:39;;;;;;;19.48;12.45;;;3.90;99.90;;;;;;5070440;28;20313;-74
2020/12/02 01:47:11;;;;;;;22.10;13.40;;;4.00;99.90;;;;;;5070182;28;20228;-74
2020/12/02 01:49:47;;;;;;;22.90;13.43;;;4.00;99.90;;;;;;5069609;28;20213;-74
2020/12/02 01:52:32;;;;;;;22.15;13.27;;;4.00;99.90;;;;;;5069036;28;20233;-74
2020/12/02 01:55:02;;;;;;;19.60;11.35;;;4.20;99.90;;;;;;5070053;28;20745;-73
2020/12/02 01:57:34;;;;;;;19.05;9.43;;;4.10;99.90;;;;;;5068789;28;20736;-73
2020/12/02 02:00:10;;;;;;;16.48;10.35;;;4.00;99.90;;;;;;5069696;28;20227;-73
2020/12/02 02:02:44;;;;;;;22.00;12.88;;;4.00;99.90;;;;;;5069465;28;20235;-73
2020/12/02 02:05:17;;;;;;;29.30;12.63;;;3.90;99.90;;;;;;5069690;28;20201;-73
2020/12/02 02:07:44;;;;;;;20.38;11.57;;;4.20;99.90;;;;;;5069337;28;20259;-73
2020/12/02 02:10:18;;;;;;;23.05;8.30;;;4.00;99.90;;;;;;5073392;28;20282;-73
2020/12/02 02:13:21;;;;;;;21.88;12.90;;;4.10;99.90;;;;;;5069398;28;20237;-73
2020/12/02 02:15:51;;;;;;;21.25;12.07;;;3.90;99.90;;;;;;5068877;28;20289;-73
2020/12/02 02:18:20;;;;;;;20.15;11.90;;;3.90;99.90;;;;;;5069012;28;20205;-73
2020/12/02 02:20:50;;;;;;;24.42;13.40;;;4.00;99.90;;;;;;5069085;28;20202;-73
2020/12/02 02:23:18;;;;;;;25.90;14.27;;;4.00;99.90;;;;;;5069495;28;20206;-74
2020/12/02 02:26:06;;;;;;;18.30;11.68;;;4.30;99.90;;;;;;5069340;28;20229;-73
2020/12/02 02:28:35;;;;;;;17.15;9.65;;;4.10;99.90;;;;;;5068884;28;20288;-73
2020/12/02 02:31:06;;;;;;;21.05;11.23;;;4.20;99.90;;;;;;5068796;28;20249;-75
2020/12/02 02:33:33;;;;;;;16.95;10.25;;;4.10;99.90;;;;;;5069140;28;20777;-73
2020/12/02 02:36:00;;;;;;;18.83;10.90;;;4.00;99.90;;;;;;5068932;28;20555;-73
2020/12/02 02:38:26;;;;;;;18.80;11.00;;;4.20;99.90;;;;;;5068556;28;20201;-73
2020/12/02 02:40:54;;;;;;;16.35;11.02;;;4.10;99.90;;;;;;5068567;28;20217;-73
2020/12/02 02:43:20;;;;;;;17.50;10.05;;;4.10;99.90;;;;;;5068847;28;20263;-74
2020/12/02 02:45:47;;;;;;;20.77;11.65;;;4.00;99.90;;;;;;5068316;28;20201;-73
2020/12/02 02:48:13;;;;;;;23.45;12.38;;;3.90;99.90;;;;;;5068635;28;20198;-74
2020/12/02 02:50:40;;;;;;;20.13;11.13;;;4.00;99.90;;;;;;5068576;28;20208;-74
2020/12/02 02:53:16;;;;;;;21.73;13.38;;;4.20;99.90;;;;;;5068796;28;20230;-73
2020/12/02 02:55:43;;;;;;;24.40;12.48;;;3.90;99.90;;;;;;5068662;28;20217;-73
2020/12/02 02:58:12;;;;;;;23.15;12.25;;;4.10;99.90;;;;;;5068270;28;20197;-74
2020/12/02 03:00:40;;;;;;;21.38;12.25;;;4.20;99.90;;;;;;5067861;28;20210;-74
2020/12/02 03:03:10;;;;;;;18.92;12.13;;;4.20;99.90;;;;;;5068874;28;20288;-74
2020/12/02 03:05:37;;;;;;;22.70;12.38;;;4.10;99.90;;;;;;5068306;28;20202;-74
2020/12/02 03:08:06;;;;;;;22.40;13.57;;;3.90;99.90;;;;;;5068939;28;20210;-74
2020/12/02 03:10:35;;;;;;;22.75;12.88;;;4.00;99.90;;;;;;5087422;28;20205;-74
2020/12/02 03:13:06;;;;;;;23.08;14.55;;;3.90;99.90;;;;;;5048891;28;20210;-74
2020/12/02 03:15:34;;;;;;;19.15;12.90;;;4.10;99.90;;;;;;5065818;28;20206;-74
2020/12/02 03:18:01;;;;;;;20.25;12.50;;;4.10;99.90;;;;;;5048336;28;20230;-74
2020/12/02 03:20:33;;;;;;;22.95;12.90;;;3.80;99.90;;;;;;5048709;28;20700;-73
2020/12/02 03:22:59;;;;;;;16.92;11.18;;;3.80;99.90;;;;;;5048546;28;20260;-74
2020/12/02 03:25:30;;;;;;;26.85;12.35;;;3.90;99.90;;;;;;5065036;28;20263;-74
2020/12/02 03:27:57;;;;;;;28.85;14.73;;;3.90;99.90;;;;;;5068350;28;20298;-73
2020/12/02 03:30:24;;;;;;;19.92;12.55;;;4.00;99.90;;;;;;5068648;28;20206;-74
2020/12/02 03:32:52;;;;;;;23.90;14.15;;;3.90;99.90;;;;;;5069057;28;20236;-73
2020/12/02 03:35:19;;;;;;;20.63;11.75;;;4.10;99.90;;;;;;5068889;28;20206;-73
2020/12/02 03:37:46;;;;;;;19.08;11.88;;;4.00;99.90;;;;;;5069032;28;20237;-73
2020/12/02 03:40:12;;;;;;;18.25;12.15;;;4.10;99.90;;;;;;5068196;28;20202;-73
2020/12/02 03:42:39;;;;;;;21.98;13.55;;;3.80;99.90;;;;;;5068398;28;20283;-73
2020/12/02 03:45:07;;;;;;;20.77;11.02;;;3.60;99.90;;;;;;5067822;28;20206;-73
2020/12/02 03:47:34;;;;;;;20.23;12.57;;;3.90;99.90;;;;;;5067990;28;20621;-73
2020/12/02 03:50:01;;;;;;;18.35;12.20;;;3.80;99.90;;;;;;5068005;28;20206;-73
2020/12/02 03:52:28;;;;;;;20.92;13.15;;;4.00;99.90;;;;;;5068187;28;20249;-74
2020/12/02 03:54:54;;;;;;;22.05;13.50;;;4.00;99.90;;;;;;5068148;28;20305;-73
2020/12/02 03:57:21;;;;;;;21.73;12.55;;;3.80;99.90;;;;;;5068523;28;20226;-74
2020/12/02 03:59:47;;;;;;;20.15;11.80;;;3.90;99.90;;;;;;5071770;28;20213;-74
2020/12/02 04:02:14;;;;;;;17.80;11.50;;;3.90;99.90;;;;;;5071676;28;20234;-74
2020/12/02 04:04:40;;;;;;;23.33;14.52;;;4.00;99.90;;;;;;5071981;28;20221;-74
2020/12/02 04:07:07;;;;;;;27.08;13.63;;;3.90;99.90;;;;;;5072031;28;20283;-74
2020/12/02 04:09:34;;;;;;;26.60;13.32;;;3.80;99.90;;;;;;5082229;28;20278;-74
2020/12/02 04:12:00;;;;;;;25.25;11.30;;;4.10;99.90;;;;;;5091819;28;20615;-74
2020/12/02 04:14:27;;;;;;;22.70;11.95;;;4.00;99.90;;;;;;5070595;28;20301;-74
2020/12/02 04:16:54;;;;;;;20.70;11.80;;;4.00;99.90;;;;;;5072248;28;20229;-74
2020/12/02 04:19:20;;;;;;;19.38;13.15;;;4.20;99.90;;;;;;5071367;28;20206;-73
2020/12/02 04:21:47;;;;;;;20.02;13.07;;;4.00;99.90;;;;;;5071531;28;20302;-74
2020/12/02 04:24:14;;;;;;;21.73;14.07;;;4.10;99.90;;;;;;5071414;28;20198;-74
2020/12/02 04:26:41;;;;;;;17.25;9.40;;;4.20;99.90;;;;;;5071439;28;20243;-73
2020/12/02 04:29:07;;;;;;;21.38;11.35;;;4.20;99.90;;;;;;5071874;28;20205;-74
2020/12/02 04:31:34;;;;;;;24.23;14.43;;;4.10;99.90;;;;;;5071863;28;20232;-73
2020/12/02 04:34:00;;;;;;;20.40;13.35;;;3.90;99.90;;;;;;5071378;28;20209;-73
2020/12/02 04:36:27;;;;;;;20.92;13.57;;;4.00;99.90;;;;;;5071497;28;20283;-73
2020/12/02 04:38:53;;;;;;;23.73;12.13;;;3.90;99.90;;;;;;5071485;28;20673;-73
2020/12/02 04:41:21;;;;;;;19.15;11.00;;;4.00;99.90;;;;;;5071370;28;20222;-73
2020/12/02 04:43:50;;;;;;;16.35;9.82;;;4.00;99.90;;;;;;5071140;28;20237;-75
2020/12/02 04:46:19;;;;;;;18.55;12.25;;;4.10;99.90;;;;;;5072358;28;20636;-74
2020/12/02 04:48:48;;;;;;;21.25;12.00;;;4.20;99.90;;;;;;5070862;28;20205;-74
2020/12/02 04:51:22;;;;;;;21.10;12.48;;;4.10;99.90;;;;;;5083361;28;20312;-73
2020/12/02 04:53:51;;;;;;;13.95;7.65;;;4.10;99.90;;;;;;5089702;28;20679;-74
2020/12/02 04:56:19;;;;;;;18.75;10.77;;;4.00;99.90;;;;;;5071093;28;20299;-74
2020/12/02 04:58:49;;;;;;;17.23;10.30;;;3.90;99.90;;;;;;5070726;28;20298;-73
2020/12/02 05:01:21;;;;;;;18.92;11.88;;;4.10;99.90;;;;;;5070465;28;20222;-73
2020/12/02 05:03:50;;;;;;;17.45;11.02;;;4.10;99.90;;;;;;5070597;28;20593;-73
2020/12/02 05:06:30;;;;;;;20.63;11.13;;;4.00;99.90;;;;;;5069712;28;20515;-73
2020/12/02 05:09:20;;;;;;;20.95;12.25;;;4.20;99.90;;;;;;5075712;28;20223;-73
2020/12/02 05:11:57;;;;;;;20.50;11.50;;;4.10;99.90;;;;;;5065477;28;20287;-73
2020/12/02 05:14:31;;;;;;;18.33;11.98;;;4.10;99.90;;;;;;5070416;28;20206;-73
2020/12/02 05:17:04;;;;;;;15.55;9.82;;;3.90;99.90;;;;;;5070327;28;20225;-73
2020/12/02 05:19:31;;;;;;;21.10;10.48;;;4.00;99.90;;;;;;5050269;28;20206;-74
2020/12/02 05:22:04;;;;;;;17.60;10.27;;;4.00;99.90;;;;;;5065298;28;20229;-73
2020/12/02 05:24:46;;;;;;;19.63;11.52;;;3.90;99.90;;;;;;5070403;28;20209;-74
2020/12/02 05:27:17;;;;;;;18.27;11.35;;;4.00;99.90;;;;;;5070249;28;20198;-74
2020/12/02 05:29:49;;;;;;;20.70;13.10;;;4.00;99.90;;;;;;5070067;28;20227;-74
2020/12/02 05:32:18;;;;;;;18.30;12.35;;;4.10;99.90;;;;;;5070004;28;20248;-74
2020/12/02 05:34:45;;;;;;;22.55;12.27;;;4.00;99.90;;;;;;5070192;28;20286;-74
2020/12/02 05:37:16;;;;;;;15.82;9.45;;;4.00;99.90;;;;;;5069698;28;20229;-74
2020/12/02 05:39:50;;;;;;;18.45;10.23;;;4.00;99.90;;;;;;5069912;28;20235;-74
2020/12/02 05:42:26;;;;;;;17.63;10.85;;;4.10;99.90;;;;;;5069553;28;20776;-74
2020/12/02 05:45:00;;;;;;;18.50;11.45;;;4.30;99.90;;;;;;5070145;28;20288;-74
2020/12/02 05:47:27;;;;;;;17.98;11.95;;;4.10;99.90;;;;;;5069629;28;20299;-74
2020/12/02 05:49:57;;;;;;;17.70;10.95;;;4.10;99.90;;;;;;5068793;28;20265;-74
2020/12/02 05:52:29;;;;;;;18.08;10.27;;;4.30;99.90;;;;;;5069356;28;20311;-74
2020/12/02 05:54:59;;;;;;;18.92;11.35;;;4.20;99.90;;;;;;5069458;28;20205;-73
2020/12/02 05:57:25;;;;;;;18.73;11.15;;;4.20;99.90;;;;;;5068544;28;20218;-74
2020/12/02 05:59:57;;;;;;;17.50;10.93;;;4.40;99.90;;;;;;5068832;28;20210;-74
2020/12/02 06:02:25;;;;;;;17.17;11.27;;;4.30;99.90;;;;;;5068809;28;20217;-74
2020/12/02 06:04:53;;;;;;;17.35;10.73;;;4.30;99.90;;;;;;5060111;28;20743;-74
2020/12/02 06:07:21;;;;;;;17.05;11.68;;;4.50;99.90;;;;;;5090095;28;20201;-76
2020/12/02 06:09:49;;;;;;;18.77;10.65;;;4.40;99.90;;;;;;5075877;28;20229;-74
2020/12/02 06:12:18;;;;;;;18.50;10.82;;;4.50;99.90;;;;;;5073733;28;20279;-74
2020/12/02 06:14:45;;;;;;;17.90;12.15;;;4.50;99.90;;;;;;5049110;28;20210;-74
2020/12/02 06:17:26;;;;;;;17.70;11.30;;;4.30;99.90;;;;;;5049484;28;20284;-74
2020/12/02 06:19:53;;;;;;;20.13;11.68;;;4.30;99.90;;;;;;5049889;28;20233;-74
2020/12/02 06:22:42;;;;;;;18.58;10.75;;;4.40;99.90;;;;;;5068517;28;20214;-73
2020/12/02 06:25:43;;;;;;;17.95;11.10;;;4.30;99.90;;;;;;5068963;28;20216;-74
2020/12/02 06:28:10;;;;;;;19.05;11.25;;;4.40;99.90;;;;;;5066530;28;20197;-74
2020/12/02 06:30:37;;;;;;;20.15;12.85;;;4.60;99.90;;;;;;5068312;28;20285;-73
2020/12/02 06:33:18;;;;;;;18.70;11.65;;;4.20;99.90;;;;;;5068069;28;20286;-74
2020/12/02 06:35:45;;;;;;;23.50;12.15;;;4.40;99.90;;;;;;5068737;28;20595;-74
2020/12/02 06:38:25;;;;;;;20.17;11.98;;;4.20;99.90;;;;;;5068816;28;20225;-73
2020/12/02 06:41:36;;;;;;;20.58;12.18;;;4.30;99.90;;;;;;5068719;28;20226;-74
2020/12/02 06:44:36;;;;;;;22.10;11.65;;;4.10;99.90;;;;;;4987038;28;20294;-74
2020/12/02 06:47:25;;;;;;;19.13;10.98;;;4.40;99.90;;;;;;5068327;28;20197;-74
2020/12/02 06:50:06;;;;;;;21.15;12.25;;;4.20;99.90;;;;;;5070409;28;20210;-74
2020/12/02 06:52:36;;;;;;;20.38;11.05;;;4.30;99.90;;;;;;5078818;28;20244;-74
2020/12/02 06:55:20;;;;;;;22.35;11.30;;;4.00;99.90;;;;;;5087879;28;20213;-74
2020/12/02 06:57:47;;;;;;;22.48;11.88;;;4.00;99.90;;;;;;5066102;28;20850;-74
2020/12/02 07:00:20;;;;;;;20.17;10.55;;;3.90;99.90;;;;;;5068635;28;20327;-74
2020/12/02 07:02:53;;;;;;;25.38;13.02;;;4.20;99.90;;;;;;5068246;28;20945;-74
2020/12/02 07:05:27;;;;;;;21.00;13.05;;;4.10;99.90;;;;;;5065456;28;20277;-74
2020/12/02 07:08:06;;;;;;;23.95;12.68;;;4.10;99.90;;;;;;5068398;28;20821;-74
2020/12/02 07:10:32;;;;;;;20.60;11.65;;;3.80;99.90;;;;;;5085921;28;20197;-74
2020/12/02 07:12:59;;;;;;;20.50;10.50;;;4.00;99.90;;;;;;5082041;28;20769;-75
2020/12/02 07:15:26;;;;;;;23.77;12.82;;;4.20;99.90;;;;;;5078615;28;20550;-74
2020/12/02 07:17:52;;;;;;;22.08;13.05;;;4.20;99.90;;;;;;5068606;28;20226;-74
2020/12/02 07:20:19;;;;;;;21.30;10.85;;;4.10;99.90;;;;;;5077410;28;20197;-73
2020/12/02 07:22:52;;;;;;;20.67;11.77;;;3.80;99.90;;;;;;5086150;28;20939;-74
2020/12/02 07:25:21;;;;;;;23.38;10.88;;;4.00;99.90;;;;;;5077257;28;20248;-73
2020/12/02 07:27:48;;;;;;;22.48;12.25;;;4.00;99.90;;;;;;5068226;28;20710;-74
2020/12/02 07:30:31;;;;;;;19.45;11.77;;;4.00;99.90;;;;;;5074362;28;20205;-76
2020/12/02 07:33:11;;;;;;;20.67;12.00;;;4.00;99.90;;;;;;5088079;28;20965;-75
2020/12/02 07:35:37;;;;;;;23.42;12.10;;;4.20;99.90;;;;;;5091997;28;20201;-75
2020/12/02 07:38:09;;;;;;;21.45;11.32;;;4.10;99.90;;;;;;5091654;28;20290;-75
2020/12/02 07:40:39;;;;;;;22.23;12.15;;;4.20;99.90;;;;;;5092656;28;20197;-73
2020/12/02 07:43:10;;;;;;;23.60;11.60;;;4.00;99.90;;;;;;5078726;28;20204;-75
2020/12/02 07:45:40;;;;;;;20.30;12.50;;;4.00;99.90;;;;;;5069179;28;20202;-75
2020/12/02 07:48:12;;;;;;;19.67;11.30;;;4.00;99.90;;;;;;5067842;28;20208;-75
2020/12/02 07:50:43;;;;;;;25.85;11.23;;;4.00;99.90;;;;;;5071967;28;20194;-73
2020/12/02 07:53:17;;;;;;;22.60;9.73;;;4.10;99.90;;;;;;5086116;28;20706;-74
2020/12/02 07:55:46;;;;;;;23.88;13.32;;;4.00;99.90;;;;;;5091193;28;20204;-75
2020/12/02 07:58:14;;;;;;;17.40;10.65;;;4.10;99.90;;;;;;5081462;28;20354;-75
2020/12/02 08:00:44;;;;;;;24.17;12.25;;;4.20;99.90;;;;;;5072388;28;20244;-73
2020/12/02 08:03:33;;;;;;;20.73;11.50;;;4.10;99.90;;;;;;5087613;28;20273;-74
2020/12/02 08:06:06;;;;;;;19.92;11.23;;;4.20;99.90;;;;;;5091703;28;20215;-74
2020/12/02 08:08:32;;;;;;;18.23;11.32;;;4.20;99.90;;;;;;5080053;28;20266;-74
2020/12/02 08:11:06;;;;;;;21.65;13.10;;;4.40;99.90;;;;;;5091989;28;20355;-74
2020/12/02 08:13:35;;;;;;;23.73;12.15;;;4.30;99.90;;;;;;5072245;28;20555;-74
2020/12/02 08:16:03;;;;;;;24.80;12.65;;;4.20;99.90;;;;;;5071874;28;20209;-74
2020/12/02 08:18:32;;;;;;;22.08;10.40;;;4.40;99.90;;;;;;5071765;28;20222;-74
2020/12/02 08:21:12;;;;;;;19.65;10.40;;;4.50;99.90;;;;;;5072400;28;20230;-76
2020/12/02 08:23:41;;;;;;;22.45;11.15;;;4.20;99.90;;;;;;5052838;28;20343;-76
2020/12/02 08:26:17;;;;;;;21.80;12.38;;;4.30;99.90;;;;;;5058584;28;20288;-74
2020/12/02 08:28:45;;;;;;;20.60;12.85;;;4.10;99.90;;;;;;5071829;28;20202;-73
2020/12/02 08:31:21;;;;;;;23.67;12.27;;;4.20;99.90;;;;;;5070958;28;20748;-75
2020/12/02 08:34:11;;;;;;;26.33;13.55;;;4.20;99.90;;;;;;5071841;28;20217;-75
2020/12/02 08:36:39;;;;;;;20.05;11.98;;;4.30;99.90;;;;;;5071636;28;20249;-75
2020/12/02 08:39:08;;;;;;;23.40;11.82;;;4.30;99.90;;;;;;5071142;28;20555;-77
2020/12/02 08:41:42;;;;;;;22.08;10.30;;;4.10;99.90;;;;;;5071471;28;20249;-74
2020/12/02 08:44:11;;;;;;;21.70;12.15;;;4.30;99.90;;;;;;5070157;28;20213;-74
2020/12/02 08:46:52;;;;;;;15.02;9.95;;;4.30;99.90;;;;;;5074093;28;20209;-74
2020/12/02 08:49:24;;;;;;;23.15;10.98;;;4.30;99.90;;;;;;5082554;28;20286;-74
2020/12/02 08:51:52;;;;;;;20.23;11.80;;;4.20;99.90;;;;;;5075747;28;20226;-75
2020/12/02 08:54:23;;;;;;;22.02;11.95;;;4.40;99.90;;;;;;5076804;28;20281;-74
2020/12/02 08:56:53;;;;;;;20.98;11.43;;;4.00;99.90;;;;;;5076309;28;20314;-74
2020/12/02 08:59:20;;;;;;;19.08;11.55;;;4.30;99.90;;;;;;5076662;28;20201;-74
2020/12/02 09:01:46;;;;;;;20.52;11.02;;;4.20;99.90;;;;;;5075748;28;20213;-74
2020/12/02 09:04:13;;;;;;;19.92;11.10;;;3.90;99.90;;;;;;5080510;28;20243;-74
2020/12/02 09:06:40;;;;;;;19.88;11.07;;;4.00;99.90;;;;;;5082842;28;20197;-74
2020/12/02 09:09:06;;;;;;;21.30;11.40;;;4.10;99.90;;;;;;5082166;28;20193;-74
2020/12/02 09:11:35;;;;;;;23.13;12.30;;;4.20;99.90;;;;;;5074077;28;20225;-74
2020/12/02 09:14:05;;;;;;;19.42;10.90;;;4.40;99.90;;;;;;5067816;28;20201;-74
2020/12/02 09:16:34;;;;;;;22.80;11.45;;;4.40;99.90;;;;;;5069837;28;20206;-74
2020/12/02 09:19:01;;;;;;;22.40;12.15;;;4.30;99.90;;;;;;5069751;28;20210;-74
2020/12/02 09:21:29;;;;;;;20.55;11.23;;;4.50;99.90;;;;;;5069803;28;20796;-74
2020/12/02 09:23:57;;;;;;;19.33;10.85;;;4.40;99.90;;;;;;5070013;28;20210;-74
2020/12/02 09:26:26;;;;;;;21.38;11.23;;;4.40;99.90;;;;;;5070011;28;20208;-74
2020/12/02 09:28:53;;;;;;;23.42;11.70;;;4.30;99.90;;;;;;5069350;28;20225;-74
2020/12/02 09:31:23;;;;;;;16.48;9.50;;;4.40;99.90;;;;;;5069890;28;20232;-74
2020/12/02 09:33:50;;;;;;;19.17;9.13;;;4.40;99.90;;;;;;5066599;28;20354;-74
2020/12/02 09:36:18;;;;;;;17.27;9.55;;;4.30;99.90;;;;;;5070148;28;20297;-72
2020/12/02 09:38:47;;;;;;;15.65;10.00;;;4.40;99.90;;;;;;5069534;28;20230;-73
2020/12/02 09:41:39;;;;;;;16.95;9.50;;;4.20;99.90;;;;;;5069906;28;20578;-74
2020/12/02 09:44:24;;;;;;;15.80;8.32;;;4.30;99.90;;;;;;5086439;28;20201;-75
2020/12/02 09:46:56;;;;;;;17.55;7.82;;;4.50;99.90;;;;;;5075003;28;20212;-74
2020/12/02 09:49:23;;;;;;;15.43;9.00;;;4.60;99.90;;;;;;5066195;28;20651;-74
2020/12/02 09:52:01;;;;;;;14.40;8.43;;;4.50;99.90;;;;;;5071678;28;20222;-74
2020/12/02 09:54:28;;;;;;;16.35;9.13;;;4.10;99.90;;;;;;5088075;28;20292;-74
2020/12/02 09:56:55;;;;;;;16.80;9.82;;;4.30;99.90;;;;;;5086620;28;20239;-74
2020/12/02 09:59:22;;;;;;;14.77;8.75;;;4.30;99.90;;;;;;5069090;28;20284;-74
2020/12/02 10:02:05;;;;;;;18.27;8.27;;;4.50;99.90;;;;;;5069455;28;20225;-74
2020/12/02 10:04:55;;;;;;;16.38;8.30;;;4.70;99.90;;;;;;5069477;28;20237;-73
2020/12/02 10:07:48;;;;;;;20.98;10.30;;;4.40;99.90;;;;;;5068935;28;20197;-74
2020/12/02 10:10:47;;;;;;;16.83;8.98;;;4.60;99.90;;;;;;5069666;28;20289;-74
2020/12/02 10:13:29;;;;;;;15.52;8.48;;;4.50;99.90;;;;;;5059687;28;20202;-74
2020/12/02 10:16:05;;;;;;;14.20;8.45;;;4.50;99.90;;;;;;5063090;28;20209;-72
2020/12/02 10:19:01;;;;;;;18.63;8.57;;;4.30;99.90;;;;;;5069034;28;20710;-73
2020/12/02 10:21:52;;;;;;;17.98;8.52;;;4.30;99.90;;;;;;5072549;28;20225;-75
2020/12/02 10:24:32;;;;;;;15.90;9.13;;;4.40;99.90;;;;;;5055873;28;20212;-74
2020/12/02 10:27:40;;;;;;;17.80;9.82;;;4.20;99.90;;;;;;5069162;28;20605;-74
2020/12/02 10:30:18;;;;;;;18.33;9.15;;;4.30;99.90;;;;;;4986926;28;20635;-74
2020/12/02 10:33:05;;;;;;;20.70;11.48;;;4.40;99.90;;;;;;4986257;28;20719;-74
2020/12/02 10:35:36;;;;;;;19.23;10.02;;;4.40;99.90;;;;;;5045624;28;20214;-74
2020/12/02 10:38:06;;;;;;;17.80;9.95;;;4.60;99.90;;;;;;5068478;28;20230;-74
2020/12/02 10:40:38;;;;;;;18.33;11.15;;;4.30;99.90;;;;;;5068933;28;20213;-74
2020/12/02 10:43:18;;;;;;;20.90;11.75;;;4.60;99.90;;;;;;5069290;28;20309;-74
2020/12/02 10:45:49;;;;;;;22.58;12.13;;;4.40;99.90;;;;;;5068769;28;20202;-74
2020/12/02 10:48:26;;;;;;;22.13;11.10;;;4.40;99.90;;;;;;5087704;28;20204;-75
2020/12/02 10:50:54;;;;;;;25.65;11.13;;;4.40;99.90;;;;;;5070931;28;20221;-74
2020/12/02 10:53:24;;;;;;;26.75;12.45;;;4.20;99.90;;;;;;5068507;28;20202;-74
2020/12/02 10:55:52;;;;;;;19.67;9.88;;;4.40;99.90;;;;;;5069221;28;20202;-74
2020/12/02 10:58:21;;;;;;;26.92;13.20;;;4.20;99.90;;;;;;5069097;28;20240;-74
2020/12/02 11:00:53;;;;;;;30.05;13.63;;;4.30;99.90;;;;;;5068643;28;20205;-74
2020/12/02 11:03:24;;;;;;;26.88;14.15;;;4.50;99.90;;;;;;5069481;28;20202;-72
2020/12/02 11:06:22;;;;;;;23.20;12.63;;;4.50;99.90;;;;;;5070224;28;20218;-74
2020/12/02 11:09:19;;;;;;;27.27;14.45;;;4.10;99.90;;;;;;5074115;28;20233;-75
2020/12/02 11:12:30;;;;;;;27.98;14.50;;;4.20;99.90;;;;;;5070715;28;20238;-73
2020/12/02 11:15:16;;;;;;;26.02;13.98;;;4.20;99.90;;;;;;5020423;28;20648;-74
2020/12/02 11:18:09;;;;;;;22.55;12.18;;;4.40;99.90;;;;;;5071733;28;20225;-73
2020/12/02 11:20:44;;;;;;;24.92;11.30;;;4.70;99.90;;;;;;5040721;28;20261;-74
2020/12/02 11:23:22;;;;;;;17.90;9.18;;;4.50;99.90;;;;;;5071764;28;20202;-73
2020/12/02 11:25:58;;;;;;;28.05;13.93;;;4.50;99.90;;;;;;5070842;28;20206;-74
2020/12/02 11:28:24;;;;;;;22.70;12.38;;;4.20;99.90;;;;;;5072890;28;20684;-74
2020/12/02 11:30:59;;;;;;;28.30;13.25;;;4.50;99.90;;;;;;5071011;28;20249;-73
2020/12/02 11:33:52;;;;;;;24.05;8.48;;;4.40;99.90;;;;;;5073484;28;20212;-75
2020/12/02 11:36:44;;;;;;;24.65;12.13;;;4.40;99.90;;;;;;5054525;28;20244;-74
2020/12/02 11:39:26;;;;;;;25.80;13.05;;;4.30;99.90;;;;;;5060753;28;20661;-76
2020/12/02 11:42:01;;;;;;;27.52;13.23;;;4.10;99.90;;;;;;5072793;28;20287;-76
2020/12/02 11:44:35;;;;;;;25.10;13.60;;;4.10;99.90;;;;;;5072250;28;20205;-76
2020/12/02 11:47:19;;;;;;;23.20;13.27;;;4.20;99.90;;;;;;5072660;28;20216;-79
2020/12/02 11:49:53;;;;;;;22.35;12.25;;;4.40;99.90;;;;;;5071535;28;20197;-76
2020/12/02 11:52:30;;;;;;;20.85;11.10;;;4.70;99.90;;;;;;5072357;28;20240;-74
2020/12/02 11:54:58;;;;;;;24.77;13.10;;;4.50;99.90;;;;;;5075316;28;20243;-77
2020/12/02 11:57:24;;;;;;;22.90;12.82;;;4.50;99.90;;;;;;5073741;28;20226;-78
2020/12/02 11:59:53;;;;;;;27.73;13.50;;;4.30;99.90;;;;;;5074424;28;20232;-74
2020/12/02 12:02:43;;;;;;;22.40;13.25;;;4.50;99.90;;;;;;5071460;28;20217;-73
2020/12/02 12:05:20;;;;;;;23.13;11.90;;;4.50;99.90;;;;;;5074475;28;20226;-76
2020/12/02 12:07:58;;;;;;;25.17;14.60;;;4.50;99.90;;;;;;5074812;28;20605;-76
2020/12/02 12:10:31;;;;;;;23.55;11.52;;;4.20;99.90;;;;;;5072351;28;20244;-74
2020/12/02 12:13:09;;;;;;;26.63;13.57;;;4.30;99.90;;;;;;5074303;28;20201;-75
2020/12/02 12:15:38;;;;;;;21.90;11.45;;;4.40;99.90;;;;;;5080769;28;20197;-74
2020/12/02 12:18:16;;;;;;;25.80;12.82;;;4.40;99.90;;;;;;5094448;28;20625;-75
2020/12/02 12:20:49;;;;;;;25.40;13.38;;;4.60;99.90;;;;;;5078051;28;20206;-74
2020/12/02 12:23:28;;;;;;;25.38;11.65;;;4.30;99.90;;;;;;5080063;28;20209;-74
2020/12/02 12:25:57;;;;;;;20.70;10.18;;;4.40;99.90;;;;;;5078143;28;20237;-75
2020/12/02 12:28:27;;;;;;;23.30;12.20;;;4.40;99.90;;;;;;5086942;28;20212;-75
2020/12/02 12:30:58;;;;;;;26.30;13.68;;;4.20;99.90;;;;;;5092847;28;20281;-74
2020/12/02 12:33:33;;;;;;;29.33;14.50;;;4.20;99.90;;;;;;5087104;28;20264;-74
2020/12/02 12:36:08;;;;;;;31.77;14.55;;;4.30;99.90;;;;;;5062273;28;20711;-75
2020/12/02 12:38:41;;;;;;;30.33;14.60;;;4.20;99.90;;;;;;5078295;28;20354;-75
2020/12/02 12:41:20;;;;;;;26.90;13.75;;;4.10;99.90;;;;;;5081692;28;20726;-75
2020/12/02 12:43:54;;;;;;;30.30;15.15;;;4.20;99.90;;;;;;5083693;28;20244;-75
2020/12/02 12:46:32;;;;;;;23.00;9.32;;;4.10;99.90;;;;;;5085032;28;20201;-77
2020/12/02 12:49:00;;;;;;;28.85;13.48;;;4.20;99.90;;;;;;5085332;28;20233;-77
2020/12/02 12:51:32;;;;;;;33.83;13.95;;;4.20;99.90;;;;;;5093909;28;20233;-77
2020/12/02 12:54:00;;;;;;;24.25;11.93;;;4.10;99.90;;;;;;5081034;28;20206;-77
2020/12/02 12:56:28;;;;;;;31.05;12.50;;;4.30;99.90;;;;;;5081182;28;20205;-75
2020/12/02 12:58:58;;;;;;;28.15;13.75;;;4.10;99.90;;;;;;5084086;28;20268;-74
2020/12/02 13:01:26;;;;;;;26.75;13.15;;;3.90;99.90;;;;;;5085354;28;20217;-75
2020/12/02 13:03:56;;;;;;;27.25;12.60;;;4.20;99.90;;;;;;5102002;28;20213;-75
2020/12/02 13:06:33;;;;;;;24.30;12.32;;;4.40;99.90;;;;;;5086477;28;20208;-75
2020/12/02 13:09:05;;;;;;;24.02;9.63;;;4.40;99.90;;;;;;5077619;28;20202;-75
2020/12/02 13:11:46;;;;;;;25.25;10.85;;;4.10;99.90;;;;;;5084710;28;20681;-76
2020/12/02 13:14:21;;;;;;;32.15;12.88;;;4.10;99.90;;;;;;5085148;28;20208;-77
2020/12/02 13:16:56;;;;;;;20.48;11.23;;;4.00;99.90;;;;;;5085155;28;20207;-77
2020/12/02 13:19:31;;;;;;;27.10;11.60;;;4.00;99.90;;;;;;5095018;28;20209;-75
2020/12/02 13:22:01;;;;;;;22.45;11.77;;;3.70;99.90;;;;;;5105740;28;20244;-76
2020/12/02 13:24:38;;;;;;;22.75;13.15;;;3.80;99.90;;;;;;5105682;28;20223;-77
2020/12/02 13:27:13;;;;;;;29.75;14.02;;;3.80;99.90;;;;;;5099504;28;20360;-74
2020/12/02 13:29:43;;;;;;;25.58;11.52;;;3.80;99.90;;;;;;5073701;28;20197;-75
2020/12/02 13:32:16;;;;;;;27.13;11.55;;;4.10;99.90;;;;;;5074653;28;20280;-75
2020/12/02 13:34:42;;;;;;;29.30;14.38;;;4.00;99.90;;;;;;5082789;28;20229;-76
2020/12/02 13:37:14;;;;;;;21.02;11.30;;;4.00;99.90;;;;;;5079763;28;20236;-74
2020/12/02 13:39:41;;;;;;;19.65;9.80;;;3.90;99.90;;;;;;5072396;28;20225;-74
2020/12/02 13:42:11;;;;;;;27.75;12.13;;;4.00;99.90;;;;;;5073312;28;20232;-74
2020/12/02 13:44:46;;;;;;;30.77;13.57;;;4.00;99.90;;;;;;5072430;28;20331;-75
2020/12/02 13:47:14;;;;;;;27.52;14.75;;;3.90;99.90;;;;;;5066584;28;20550;-75